createdAt,value
2022-10-09T00:03:08.491Z,9.33
2022-10-09T00:08:10.833Z,9.32
2022-10-09T00:13:13.424Z,9.27
2022-10-09T00:23:18.385Z,9.2
2022-10-09T00:28:21.160Z,9.21
2022-10-09T00:33:23.652Z,9.12
2022-10-09T00:38:31.855Z,9.16
2022-10-09T00:43:34.696Z,9.12
2022-10-09T00:53:40.057Z,9.06
2022-10-09T00:58:42.787Z,9.04
2022-10-09T01:03:45.343Z,9
2022-10-09T01:08:48.026Z,9.06
2022-10-09T01:13:50.665Z,9.06
2022-10-09T01:18:53.288Z,9.01
2022-10-09T01:23:56.111Z,9.05
2022-10-09T01:28:58.981Z,9.02
2022-10-09T01:39:04.043Z,9.02
2022-10-09T01:44:06.706Z,8.95
2022-10-09T01:49:09.348Z,8.92
2022-10-09T01:54:12.077Z,8.88
2022-10-09T01:59:16.148Z,8.84
2022-10-09T02:04:17.501Z,8.85
2022-10-09T02:09:21.063Z,8.81
2022-10-09T02:14:23.786Z,8.71
2022-10-09T02:24:29.007Z,8.57
2022-10-09T02:29:34.303Z,8.53
2022-10-09T02:34:39.420Z,8.45
2022-10-09T02:39:42.012Z,8.42
2022-10-09T02:44:44.895Z,8.35
2022-10-09T02:49:47.517Z,8.34
2022-10-09T02:54:50.136Z,8.33
2022-10-09T02:59:52.676Z,8.35
2022-10-09T03:04:58.011Z,8.27
2022-10-09T03:15:02.862Z,8.26
2022-10-09T03:25:08.129Z,8.22
2022-10-09T03:30:10.877Z,8.18
2022-10-09T03:35:13.767Z,8.16
2022-10-09T03:40:16.411Z,8.14
2022-10-09T03:45:19.193Z,8.16
2022-10-09T03:50:21.681Z,8.09
2022-10-09T03:55:24.517Z,8.06
2022-10-09T04:00:27.106Z,8.01
2022-10-09T04:05:29.781Z,8
2022-10-09T04:10:32.376Z,7.95
2022-10-09T04:15:35.027Z,7.98
2022-10-09T04:20:40.370Z,7.9
2022-10-09T04:31:46.745Z,7.92
2022-10-09T04:36:48.977Z,7.69
2022-10-09T04:41:51.673Z,7.58
2022-10-09T04:46:54.179Z,7.5
2022-10-09T04:51:56.667Z,7.45
2022-10-09T04:56:59.370Z,7.43
2022-10-09T05:02:02.032Z,7.39
2022-10-09T05:12:07.318Z,7.23
2022-10-09T05:22:12.459Z,7.21
2022-10-09T05:27:14.962Z,7.13
2022-10-09T05:37:29.079Z,7.25
2022-10-09T05:42:32.013Z,7.32
2022-10-09T05:47:34.715Z,7.32
2022-10-09T05:52:40.844Z,7.49
2022-10-09T05:57:43.506Z,7.72
2022-10-09T06:07:58.117Z,8.33
2022-10-09T06:13:01.073Z,8.65
2022-10-09T06:18:03.811Z,8.94
2022-10-09T06:28:09.200Z,9.91
2022-10-09T06:33:11.725Z,10.24
2022-10-09T06:38:14.486Z,10.33
2022-10-09T06:43:17.355Z,10.63
2022-10-09T06:48:20.309Z,10.88
2022-10-09T06:53:23.213Z,11.34
2022-10-09T06:58:25.978Z,11.12
2022-10-09T07:03:28.614Z,11.5
2022-10-09T07:08:31.281Z,11.68
2022-10-09T07:13:34.255Z,12.01
2022-10-09T07:18:36.831Z,11.83
2022-10-09T07:23:39.511Z,11.92
2022-10-09T07:28:42.193Z,12.55
2022-10-09T07:33:44.803Z,12.87
2022-10-09T07:38:47.485Z,12.93
2022-10-09T07:43:50.353Z,12.86
2022-10-09T07:48:55.465Z,13.05
2022-10-09T07:53:58.343Z,13.48
2022-10-09T07:59:00.997Z,13.48
2022-10-09T08:04:03.644Z,13.79
2022-10-09T08:09:06.112Z,13.99
2022-10-09T08:14:08.823Z,14.07
2022-10-09T08:19:11.389Z,14.14
2022-10-09T08:24:14.224Z,14.65
2022-10-09T08:29:16.971Z,15.26
2022-10-09T08:34:19.978Z,15.29
2022-10-09T08:39:22.639Z,15.64
2022-10-09T08:44:25.656Z,15.89
2022-10-09T08:49:28.287Z,16.45
2022-10-09T08:54:30.875Z,15.15
2022-10-09T08:59:33.324Z,15.96
2022-10-09T09:04:36.131Z,15.67
2022-10-09T09:09:38.778Z,16
2022-10-09T09:14:41.647Z,16.56
2022-10-09T09:19:44.380Z,17.01
2022-10-09T09:24:47.134Z,16.6
2022-10-09T09:29:49.959Z,16.61
2022-10-09T09:34:52.519Z,17.67
2022-10-09T09:40:34.763Z,17.44
2022-10-09T09:44:58.243Z,18.52
2022-10-09T09:50:00.912Z,18.45
2022-10-09T09:55:03.448Z,18.64
2022-10-09T10:00:06.199Z,18.8
2022-10-09T10:05:08.899Z,19.35
2022-10-09T10:10:11.744Z,19.12
2022-10-09T10:15:14.433Z,18.28
2022-10-09T10:20:17.091Z,18.59
2022-10-09T10:25:19.604Z,18.57
2022-10-09T10:30:22.005Z,18.41
2022-10-09T10:35:24.879Z,19.04
2022-10-09T10:40:27.470Z,19.73
2022-10-09T10:45:29.966Z,19.38
2022-10-09T10:50:32.645Z,20.09
2022-10-09T10:55:35.196Z,19.79
2022-10-09T11:00:37.884Z,20.34
2022-10-09T11:05:40.472Z,20.88
2022-10-09T11:10:43.590Z,20.67
2022-10-09T11:15:46.096Z,20.7
2022-10-09T11:20:48.538Z,19.85
2022-10-09T11:25:51.043Z,18.93
2022-10-09T11:30:53.853Z,19.4
2022-10-09T11:35:56.650Z,19.91
2022-10-09T11:41:01.508Z,19.4
2022-10-09T11:46:02.208Z,18.91
2022-10-09T11:51:04.758Z,19.07
2022-10-09T11:56:07.287Z,18.86
2022-10-09T12:01:10.073Z,19.2
2022-10-09T12:06:12.760Z,19.16
2022-10-09T12:11:15.335Z,19.51
2022-10-09T12:16:18.122Z,19.05
2022-10-09T12:21:20.532Z,18.63
2022-10-09T12:26:23.447Z,19.11
2022-10-09T12:31:26.026Z,19.2
2022-10-09T12:36:28.734Z,20.07
2022-10-09T12:41:31.529Z,19.87
2022-10-09T12:46:34.438Z,19.58
2022-10-09T12:51:36.703Z,18.73
2022-10-09T12:56:39.198Z,18.24
2022-10-09T13:01:42.145Z,18.4
2022-10-09T13:06:44.481Z,18.49
2022-10-09T13:11:46.763Z,18.67
2022-10-09T13:16:49.557Z,19.04
2022-10-09T13:21:52.081Z,18.24
2022-10-09T13:26:54.684Z,18.3
2022-10-09T13:31:57.189Z,18.16
2022-10-09T13:36:59.863Z,18.23
2022-10-09T13:42:02.403Z,18.2
2022-10-09T13:47:05.175Z,17.75
2022-10-09T13:52:07.941Z,17.5
2022-10-09T13:57:10.700Z,17.56
2022-10-09T14:02:13.257Z,17.27
2022-10-09T14:07:15.604Z,17.1
2022-10-09T14:12:18.400Z,16.95
2022-10-09T14:17:24.671Z,17.06
2022-10-09T14:22:27.293Z,16.95
2022-10-09T14:27:29.997Z,16.63
2022-10-09T14:32:32.532Z,16.67
2022-10-09T14:37:41.398Z,16.47
2022-10-09T14:42:38.502Z,16.2
2022-10-09T14:47:41.128Z,16.17
2022-10-09T14:52:43.724Z,16
2022-10-09T14:57:46.303Z,16.11
2022-10-09T15:02:49.163Z,16.18
2022-10-09T15:07:51.794Z,16.11
2022-10-09T15:12:54.369Z,16
2022-10-09T15:17:57.018Z,15.82
2022-10-09T15:22:59.611Z,15.69
2022-10-09T15:28:02.211Z,15.45
2022-10-09T15:33:04.819Z,15.51
2022-10-09T15:38:07.311Z,15.45
2022-10-09T15:43:10.362Z,15.32
2022-10-09T15:48:12.990Z,15.16
2022-10-09T15:53:15.707Z,15.17
2022-10-09T15:58:18.151Z,14.91
2022-10-09T16:03:20.723Z,14.8
2022-10-09T16:08:23.275Z,14.67
2022-10-09T16:13:25.863Z,14.61
2022-10-09T16:18:28.328Z,14.47
2022-10-09T16:23:31.056Z,14.4
2022-10-09T16:28:33.909Z,14.22
2022-10-09T16:33:36.500Z,14.05
2022-10-09T16:38:39.177Z,14
2022-10-09T16:43:41.912Z,13.9
2022-10-09T16:48:44.661Z,13.8
2022-10-09T16:53:47.316Z,13.73
2022-10-09T16:58:49.882Z,13.68
2022-10-09T17:03:52.678Z,13.6
2022-10-09T17:08:55.265Z,13.57
2022-10-09T17:13:58.050Z,13.55
2022-10-09T17:19:00.752Z,13.48
2022-10-09T17:24:03.184Z,13.4
2022-10-09T17:29:05.684Z,13.28
2022-10-09T17:34:08.457Z,13.2
2022-10-09T17:39:11.137Z,13.11
2022-10-09T17:44:14.340Z,13.08
2022-10-09T17:49:17.166Z,12.98
2022-10-09T17:54:19.718Z,12.96
2022-10-09T17:59:22.312Z,12.95
2022-10-09T18:04:25.155Z,12.85
2022-10-09T18:09:27.744Z,12.82
2022-10-09T18:14:33.318Z,12.73
2022-10-09T18:19:36.070Z,12.67
2022-10-09T18:24:38.771Z,12.68
2022-10-09T18:29:41.425Z,12.65
2022-10-09T18:34:46.430Z,12.5
2022-10-09T18:39:46.708Z,12.4
2022-10-09T18:44:52.472Z,12.3
2022-10-09T18:49:55.279Z,12.26
2022-10-09T18:54:57.782Z,12.2
2022-10-09T19:00:00.419Z,12.16
2022-10-09T19:05:03.279Z,12.11
2022-10-09T19:10:05.932Z,12.07
2022-10-09T19:15:12.003Z,12.08
2022-10-09T19:20:11.236Z,11.99
2022-10-09T19:25:13.749Z,11.94
2022-10-09T19:30:16.632Z,11.91
2022-10-09T19:35:19.192Z,11.87
2022-10-09T19:40:21.746Z,11.82
2022-10-09T19:45:24.244Z,11.76
2022-10-09T19:55:30.973Z,11.63
2022-10-09T20:00:32.304Z,11.63
2022-10-09T20:05:34.833Z,11.57
2022-10-09T20:15:40.425Z,11.42
2022-10-09T20:25:46.145Z,11.34
2022-10-09T20:30:48.686Z,11.32
2022-10-09T20:35:51.283Z,11.27
2022-10-09T20:40:54.363Z,11.25
2022-10-09T20:45:56.766Z,11.21
2022-10-09T20:50:59.180Z,11.21
2022-10-09T20:56:01.786Z,11.17
2022-10-09T21:01:04.413Z,11.19
2022-10-09T21:06:06.753Z,11.23
2022-10-09T21:11:09.573Z,11.15
2022-10-09T21:16:12.113Z,11.15
2022-10-09T21:26:17.781Z,11.07
2022-10-09T21:31:20.554Z,11.03
2022-10-09T21:41:26.124Z,10.99
2022-10-09T21:46:28.700Z,10.86
2022-10-09T21:51:31.173Z,10.81
2022-10-09T21:56:33.696Z,10.76
2022-10-09T22:01:36.444Z,10.63
2022-10-09T22:06:38.993Z,10.62
2022-10-09T22:11:41.717Z,10.53
2022-10-09T22:21:47.013Z,10.49
2022-10-09T22:26:49.442Z,10.46
2022-10-09T22:31:52.125Z,10.44
2022-10-09T22:36:54.767Z,10.37
2022-10-09T22:41:57.535Z,10.24
2022-10-09T22:47:00.234Z,10.25
2022-10-09T22:52:02.971Z,10.2
2022-10-09T22:57:05.492Z,10.15
2022-10-09T23:02:08.084Z,10.12
2022-10-09T23:07:10.925Z,10.15
2022-10-09T23:12:13.519Z,10.18
2022-10-09T23:17:18.884Z,10.21
2022-10-09T23:22:21.818Z,10.19
2022-10-09T23:27:24.552Z,10.19
2022-10-09T23:32:27.181Z,10.15
2022-10-09T23:37:29.804Z,10.15
2022-10-09T23:42:32.476Z,10.1
2022-10-09T23:47:35.098Z,10.03
2022-10-09T23:52:42.460Z,9.99
2022-10-09T23:57:45.067Z,9.96
